Time,TemperatureF,DewpointF,PressureIn,WindDirection,WindDirectionDegrees,WindSpeedMPH,WindSpeedGustMPH,Humidity,HourlyPrecipIn,Conditions,Clouds,dailyrainin,SolarRadiationWatts/m^2,SoftwareType,DateUTC
2017-02-28 00:02:00,39.9,37.2,30.21,SSW,192,0.0,4.0,90,0.00,,,0.00,0.0,meteobridge,2017-02-28 05:02:00,
2017-02-28 00:07:00,39.7,37.4,30.21,SW,232,4.0,6.0,91,0.00,,,0.00,0.0,meteobridge,2017-02-28 05:07:00,
2017-02-28 00:12:00,39.7,37.4,30.21,South,178,2.9,4.0,91,0.00,,,0.00,0.0,meteobridge,2017-02-28 05:12:00,
2017-02-28 00:17:00,39.7,37.4,30.22,SSE,161,6.0,7.0,91,0.00,,,0.00,0.0,meteobridge,2017-02-28 05:17:00,
2017-02-28 00:22:00,39.6,37.2,30.21,SSW,193,4.0,10.0,91,0.00,,,0.00,0.0,meteobridge,2017-02-28 05:22:00,
2017-02-28 00:27:00,39.6,37.2,30.21,SSE,168,2.0,5.0,91,0.00,,,0.00,0.0,meteobridge,2017-02-28 05:27:00,
2017-02-28 00:32:00,39.6,37.4,30.20,South,177,2.0,5.0,92,0.00,,,0.00,0.0,meteobridge,2017-02-28 05:32:00,
2017-02-28 00:37:00,39.6,37.4,30.20,SSE,167,2.9,8.0,92,0.00,,,0.00,0.0,meteobridge,2017-02-28 05:37:00,
2017-02-28 00:42:00,39.6,37.4,30.21,South,176,4.0,7.0,92,0.00,,,0.00,0.0,meteobridge,2017-02-28 05:42:00,
2017-02-28 00:47:00,39.6,37.4,30.21,South,188,4.0,4.0,92,0.00,,,0.00,0.0,meteobridge,2017-02-28 05:47:00,
2017-02-28 00:52:00,39.4,37.2,30.21,South,175,2.9,12.0,92,0.00,,,0.00,0.0,meteobridge,2017-02-28 05:52:00,
2017-02-28 00:57:00,39.4,37.6,30.21,South,180,0.9,8.0,93,0.00,,,0.00,0.0,meteobridge,2017-02-28 05:57:00,
2017-02-28 01:02:00,39.4,37.6,30.21,South,169,2.0,6.0,93,0.00,,,0.00,0.0,meteobridge,2017-02-28 06:02:00,
2017-02-28 01:07:00,39.4,37.6,30.21,South,174,4.0,5.0,93,0.00,,,0.00,0.0,meteobridge,2017-02-28 06:07:00,
2017-02-28 01:12:00,39.4,37.6,30.21,South,175,2.0,3.0,93,0.00,,,0.00,0.0,meteobridge,2017-02-28 06:12:00,
2017-02-28 01:13:00,39.4,37.6,30.21,South,175,0.0,3.0,93,0.00,,,0.00,0.0,meteobridge,2017-02-28 06:13:00,
2017-02-28 01:18:00,39.2,37.4,30.21,South,175,0.0,4.0,93,0.00,,,0.00,0.0,meteobridge,2017-02-28 06:18:00,
2017-02-28 01:23:00,39.2,37.4,30.20,SSE,165,2.9,5.0,93,0.00,,,0.00,0.0,meteobridge,2017-02-28 06:23:00,
2017-02-28 01:28:00,39.2,37.4,30.20,SSE,165,0.0,5.0,93,0.00,,,0.00,0.0,meteobridge,2017-02-28 06:28:00,
2017-02-28 01:33:00,39.2,37.6,30.20,SSE,168,2.0,3.0,94,0.00,,,0.00,0.0,meteobridge,2017-02-28 06:33:00,
2017-02-28 01:38:00,39.0,37.2,30.20,SSE,168,0.0,2.0,93,0.00,,,0.00,0.0,meteobridge,2017-02-28 06:38:00,
2017-02-28 01:43:00,38.8,37.0,30.19,SSE,153,2.0,5.0,93,0.00,,,0.00,0.0,meteobridge,2017-02-28 06:43:00,
2017-02-28 01:48:00,38.7,36.9,30.19,SE,135,2.0,3.0,93,0.00,,,0.00,0.0,meteobridge,2017-02-28 06:48:00,
2017-02-28 01:53:00,38.5,36.7,30.19,SE,134,0.9,3.0,93,0.00,,,0.00,0.0,meteobridge,2017-02-28 06:53:00,
2017-02-28 01:58:00,38.3,36.5,30.19,SE,134,0.9,3.0,93,0.00,,,0.00,0.0,meteobridge,2017-02-28 06:58:00,
2017-02-28 02:03:00,38.1,36.3,30.19,SE,134,0.0,3.0,93,0.00,,,0.00,0.0,meteobridge,2017-02-28 07:03:00,
2017-02-28 02:08:00,37.9,36.3,30.19,SE,134,2.0,2.0,94,0.00,,,0.00,0.0,meteobridge,2017-02-28 07:08:00,
2017-02-28 02:13:00,37.9,36.3,30.19,SE,134,0.0,4.0,94,0.00,,,0.00,0.0,meteobridge,2017-02-28 07:13:00,
2017-02-28 02:18:00,37.9,36.3,30.19,SE,134,2.0,3.0,94,0.00,,,0.00,0.0,meteobridge,2017-02-28 07:18:00,
2017-02-28 02:23:00,38.1,36.9,30.19,SSE,162,2.9,6.0,95,0.00,,,0.00,0.0,meteobridge,2017-02-28 07:23:00,
2017-02-28 02:28:00,38.5,37.2,30.18,SSE,159,2.9,5.0,95,0.00,,,0.00,0.0,meteobridge,2017-02-28 07:28:00,
2017-02-28 02:34:00,38.5,37.2,30.18,SSE,154,2.0,3.0,95,0.00,,,0.00,0.0,meteobridge,2017-02-28 07:34:00,
2017-02-28 02:39:00,38.7,37.4,30.18,SSE,154,0.9,3.0,95,0.00,,,0.00,0.0,meteobridge,2017-02-28 07:39:00,
2017-02-28 02:44:00,38.7,37.4,30.17,SSE,154,2.0,3.0,95,0.00,,,0.00,0.0,meteobridge,2017-02-28 07:44:00,
2017-02-28 02:49:00,38.7,37.4,30.18,SSE,154,0.0,1.0,95,0.00,,,0.00,0.0,meteobridge,2017-02-28 07:49:00,
2017-02-28 02:54:00,38.7,37.4,30.19,SSE,154,0.0,4.0,95,0.00,,,0.00,0.0,meteobridge,2017-02-28 07:54:00,
2017-02-28 02:59:00,38.8,37.6,30.18,SSE,154,0.0,2.0,95,0.00,,,0.00,0.0,meteobridge,2017-02-28 07:59:00,
2017-02-28 03:04:00,38.7,37.4,30.18,SSE,154,2.0,3.0,95,0.00,,,0.00,0.0,meteobridge,2017-02-28 08:04:00,
2017-02-28 03:09:00,38.7,37.4,30.17,SSE,154,0.0,2.0,95,0.00,,,0.00,0.0,meteobridge,2017-02-28 08:09:00,
2017-02-28 03:14:00,38.5,36.9,30.17,SSE,154,2.9,3.0,94,0.00,,,0.00,0.0,meteobridge,2017-02-28 08:14:00,
2017-02-28 03:19:00,38.3,37.0,30.17,SSE,153,0.0,1.0,95,0.00,,,0.00,0.0,meteobridge,2017-02-28 08:19:00,
2017-02-28 03:24:00,38.1,36.9,30.17,SSE,153,0.0,1.0,95,0.00,,,0.00,0.0,meteobridge,2017-02-28 08:24:00,
2017-02-28 03:29:00,37.9,36.7,30.16,SSE,153,0.9,1.0,95,0.00,,,0.00,0.0,meteobridge,2017-02-28 08:29:00,
2017-02-28 03:34:00,37.8,36.5,30.16,SSE,153,0.0,3.0,95,0.00,,,0.00,0.0,meteobridge,2017-02-28 08:34:00,
2017-02-28 03:39:00,37.8,36.5,30.16,SSE,153,0.9,2.0,95,0.00,,,0.00,0.0,meteobridge,2017-02-28 08:39:00,
2017-02-28 03:44:00,37.8,36.5,30.15,SSE,153,0.0,1.0,95,0.00,,,0.00,0.0,meteobridge,2017-02-28 08:44:00,
2017-02-28 03:49:00,37.6,36.3,30.15,SSE,153,0.0,2.0,95,0.00,,,0.00,0.0,meteobridge,2017-02-28 08:49:00,
2017-02-28 03:54:00,37.8,36.5,30.15,SSE,153,0.0,1.0,95,0.00,,,0.00,0.0,meteobridge,2017-02-28 08:54:00,
2017-02-28 03:59:00,37.8,36.5,30.15,SSE,153,0.0,0.0,95,0.00,,,0.00,0.0,meteobridge,2017-02-28 08:59:00,
2017-02-28 04:04:00,37.8,36.7,30.15,SSE,153,0.0,1.0,96,0.00,,,0.00,0.0,meteobridge,2017-02-28 09:04:00,
2017-02-28 04:09:00,37.9,36.9,30.15,SSE,154,2.9,3.0,96,0.00,,,0.00,0.0,meteobridge,2017-02-28 09:09:00,
2017-02-28 04:14:00,37.9,36.9,30.14,SE,142,4.0,4.0,96,0.00,,,0.00,0.0,meteobridge,2017-02-28 09:14:00,
2017-02-28 04:19:00,37.9,36.9,30.14,SE,127,0.9,4.0,96,0.00,,,0.00,0.0,meteobridge,2017-02-28 09:19:00,
2017-02-28 04:24:00,37.9,36.9,30.14,ESE,106,2.0,4.0,96,0.00,,,0.00,0.0,meteobridge,2017-02-28 09:24:00,
2017-02-28 04:29:00,38.1,37.0,30.14,East,100,4.9,5.0,96,0.00,,,0.00,0.0,meteobridge,2017-02-28 09:29:00,
2017-02-28 04:34:00,37.9,36.9,30.14,East,98,6.0,13.0,96,0.00,,,0.00,0.0,meteobridge,2017-02-28 09:34:00,
2017-02-28 04:39:00,38.1,37.0,30.14,ENE,78,2.9,7.0,96,0.00,,,0.00,0.0,meteobridge,2017-02-28 09:39:00,
2017-02-28 04:44:00,37.9,36.9,30.14,NE,55,4.0,6.0,96,0.00,,,0.00,0.0,meteobridge,2017-02-28 09:44:00,
2017-02-28 04:49:00,37.9,36.9,30.14,ESE,116,0.9,7.0,96,0.00,,,0.00,0.0,meteobridge,2017-02-28 09:49:00,
2017-02-28 04:54:00,37.9,36.9,30.13,ESE,119,2.0,3.0,96,0.00,,,0.00,0.0,meteobridge,2017-02-28 09:54:00,
2017-02-28 04:59:00,37.9,36.9,30.13,East,95,0.0,2.0,96,0.00,,,0.00,0.0,meteobridge,2017-02-28 09:59:00,
2017-02-28 05:04:00,37.8,36.7,30.13,ESE,123,2.0,4.0,96,0.00,,,0.00,0.0,meteobridge,2017-02-28 10:04:00,
2017-02-28 05:09:00,37.8,36.7,30.13,ESE,117,2.9,4.0,96,0.00,,,0.00,0.0,meteobridge,2017-02-28 10:09:00,
2017-02-28 05:14:00,37.9,36.9,30.13,SSE,159,4.0,6.0,96,0.00,,,0.00,0.0,meteobridge,2017-02-28 10:14:00,
2017-02-28 05:19:00,37.9,36.9,30.12,SE,144,2.0,4.0,96,0.00,,,0.00,0.0,meteobridge,2017-02-28 10:19:00,
2017-02-28 05:24:00,37.9,36.9,30.12,SE,142,2.9,4.0,96,0.00,,,0.00,0.0,meteobridge,2017-02-28 10:24:00,